Time;durP1;ratioP1;P1;durP2;ratioP2;P2;SDS_P1;SDS_P2;PMS_P1;PMS_P2;Temp;Humidity;BMP_temperature;BMP_pressure;BME280_temperature;BME280_humidity;BME280_pressure;Samples;Min_cycle;Max_cycle;Signal;HPM_P1;HPM_P2
2022/09/23 00:00:58;;;;;;;11.40;6.90;;;;;;;7.78;99.12;99178.20;220353;1281;25212;-75
2022/09/23 00:07:27;;;;;;;;;;;;;;;;;;;;;
2022/09/23 00:13:57;;;;;;;12.30;7.20;;;;;;;7.72;99.64;99172.08;220171;1281;22567;-77
2022/09/23 00:19:47;;;;;;;14.90;9.30;;;;;;;7.68;99.45;99166.34;220267;1281;22579;-76
2022/09/23 00:26:24;;;;;;;17.50;9.60;;;;;;;7.64;99.75;99160.73;219224;1281;22567;-76
2022/09/23 00:33:16;;;;;;;15.20;8.90;;;;;;;7.60;99.87;99155.75;220636;1277;24316;-76
2022/09/23 00:40:02;;;;;;;15.90;9.10;;;;;;;7.56;99.94;99146.56;220658;1278;22595;-76
2022/09/23 00:46:30;;;;;;;;;;;;;;;;;;;;;
2022/09/23 00:52:53;;;;;;;;;;;;;;;;;;;;;
2022/09/23 00:59:15;;;;;;;16.20;8.80;;;;;;;7.37;99.89;99139.59;220886;1278;23182;-75
2022/09/23 01:05:47;;;;;;;18.30;9.50;;;;;;;7.30;99.98;99144.02;219830;1277;25366;-76
2022/09/23 01:19:44;;;;;;;;;;;;;;;;;;;;;
2022/09/23 01:33:10;;;;;;;;;;;;;;;;;;;;;
2022/09/23 01:46:24;;;;;;;13.20;8.40;;;;;;;7.17;100.00;99120.34;220868;1277;26383;-76
2022/09/23 01:53:21;;;;;;;;;;;;;;;;;;;;;
2022/09/23 02:06:23;;;;;;;16.20;10.90;;;;;;;7.17;100.00;99112.81;219904;1281;22692;-78
2022/09/23 02:12:47;;;;;;;16.20;10.60;;;;;;;7.14;100.00;99111.31;219466;1281;25419;-76
2022/09/23 02:33:37;;;;;;;;;;;;;;;;;;;;;
2022/09/23 02:40:17;;;;;;;;;;;;;;;;;;;;;
2022/09/23 02:46:34;;;;;;;17.20;10.40;;;;;;;7.10;100.00;99109.63;219573;1279;22602;-76
2022/09/23 02:52:55;;;;;;;17.40;9.70;;;;;;;7.11;100.00;99110.86;220187;1281;24422;-76
2022/09/23 02:59:18;;;;;;;14.70;8.80;;;;;;;7.15;100.00;99113.77;219409;1281;23258;-76
2022/09/23 03:06:01;;;;;;;;;;;;;;;;;;;;;
2022/09/23 03:12:52;;;;;;;;;;;;;;;;;;;;;
2022/09/23 03:20:05;;;;;;;18.60;9.60;;;;;;;7.31;100.00;99109.71;220085;1281;23163;-76
2022/09/23 03:27:13;;;;;;;;;;;;;;;;;;;;;
2022/09/23 03:32:44;;;;;;;17.60;9.20;;;;;;;7.51;100.00;99106.97;220049;1277;25264;-76
2022/09/23 03:38:33;;;;;;;15.30;9.60;;;;;;;7.56;100.00;99099.48;219929;1278;25412;-76
2022/09/23 03:43:58;;;;;;;15.60;9.80;;;;;;;7.59;100.00;99098.58;220101;1277;24273;-76
2022/09/23 03:50:27;;;;;;;15.90;9.80;;;;;;;7.60;100.00;99096.30;220296;1278;24374;-78
2022/09/23 03:57:06;;;;;;;;;;;;;;;;;;;;;
2022/09/23 04:10:06;;;;;;;12.60;8.40;;;;;;;7.60;100.00;99098.86;220929;1278;22537;-75
2022/09/23 04:16:12;;;;;;;17.60;9.50;;;;;;;7.55;100.00;99098.79;219561;1280;25325;-76
2022/09/23 04:22:13;;;;;;;;;;;;;;;;;;;;;
2022/09/23 04:28:28;;;;;;;16.50;8.60;;;;;;;7.37;100.00;99103.02;218411;1284;24179;-76
2022/09/23 04:35:14;;;;;;;;;;;;;;;;;;;;;
2022/09/23 04:42:08;;;;;;;16.00;9.20;;;;;;;7.09;100.00;99106.33;218662;1284;22560;-76
2022/09/23 04:48:19;;;;;;;15.50;9.20;;;;;;;7.01;100.00;99100.41;219901;1282;25526;-75
2022/09/23 04:53:59;;;;;;;16.40;9.50;;;;;;;6.94;100.00;99096.52;220166;1279;22580;-77
2022/09/23 05:00:17;;;;;;;18.50;10.10;;;;;;;6.88;100.00;99103.14;220248;1281;26618;-76
2022/09/23 05:05:55;;;;;;;15.60;10.10;;;;;;;6.79;100.00;99103.08;219819;1279;24336;-76
2022/09/23 05:12:02;;;;;;;17.00;10.50;;;;;;;6.73;100.00;99109.80;220363;1279;22566;-76
2022/09/23 05:18:08;;;;;;;19.60;10.90;;;;;;;6.70;100.00;99112.27;219513;1280;25412;-75
2022/09/23 05:24:17;;;;;;;18.70;11.00;;;;;;;6.75;100.00;99118.98;219789;1277;24333;-76
2022/09/23 05:29:52;;;;;;;22.50;11.20;;;;;;;6.78;100.00;99121.98;220107;1276;22779;-75
2022/09/23 05:42:30;;;;;;;19.70;10.50;;;;;;;6.69;100.00;99124.46;220130;1277;24224;-75
2022/09/23 05:48:34;;;;;;;19.60;11.20;;;;;;;6.60;100.00;99124.66;220561;1276;23224;-75
2022/09/23 05:53:51;;;;;;;31.40;15.90;;;;;;;6.58;100.00;99125.49;220454;1277;23066;-73
2022/09/23 05:59:07;;;;;;;22.10;10.70;;;;;;;6.64;100.00;99130.17;221194;1275;22596;-73
2022/09/23 06:05:01;;;;;;;17.00;9.40;;;;;;;6.75;100.00;99131.70;221214;1276;22575;-77
2022/09/23 06:10:55;;;;;;;;;;;;;;;;;;;;;
2022/09/23 06:17:14;;;;;;;;;;;;;;;;;;;;;
2022/09/23 06:24:34;;;;;;;15.40;9.20;;;;;;;7.21;100.00;99134.48;223007;1276;23124;-76
2022/09/23 06:30:30;;;;;;;14.70;9.50;;;;;;;7.40;100.00;99140.98;222636;1277;22661;-76
2022/09/23 06:36:44;;;;;;;;;;;;;;;;;;;;;
2022/09/23 06:43:20;;;;;;;15.60;10.40;;;;;;;7.83;100.00;99139.91;223416;1277;22604;-80
2022/09/23 06:49:45;;;;;;;;;;;;;;;;;;;;;
2022/09/23 06:56:13;;;;;;;;;;;;;;;8.18;100.00;99144.83;221929;1277;22565;-77
2022/09/23 07:02:17;;;;;;;12.60;8.50;;;;;;;8.37;100.00;99149.52;222154;1276;26367;-77
2022/09/23 07:07:57;;;;;;;13.50;9.20;;;;;;;8.51;100.00;99146.41;223741;1276;24324;-76
2022/09/23 07:13:32;;;;;;;16.40;9.30;;;;;;;8.69;100.00;99149.58;221539;1276;22554;-78
2022/09/23 07:19:15;;;;;;;15.90;11.20;;;;;;;8.84;100.00;99148.94;221891;1276;22591;-76
2022/09/23 07:24:26;;;;;;;16.00;11.60;;;;;;;8.98;100.00;99151.55;223965;1276;22804;-76
2022/09/23 07:29:52;;;;;;;14.40;10.50;;;;;;;9.15;100.00;99151.10;221611;1276;22544;-78
2022/09/23 07:35:30;;;;;;;;;;;;;;;;;;;;;
2022/09/23 07:41:24;;;;;;;15.10;11.40;;;;;;;9.65;99.94;99154.68;222036;1282;22590;-79
2022/09/23 07:47:27;;;;;;;;;;;;;;;;;;;;;
2022/09/23 07:53:36;;;;;;;14.50;10.90;;;;;;;10.09;98.84;99151.99;222734;1282;22591;-77
2022/09/23 07:59:07;;;;;;;14.60;9.80;;;;;;;10.30;98.63;99151.78;220649;1282;22583;-76
2022/09/23 08:04:59;;;;;;;14.70;9.10;;;;;;;10.50;98.33;99152.26;222284;1282;24340;-78
2022/09/23 08:18:15;;;;;;;13.40;9.10;;;;;;;11.04;98.08;99157.85;223798;1276;25324;-78
2022/09/23 08:24:36;;;;;;;13.20;8.10;;;;;;;11.42;97.61;99161.67;220407;1284;22570;-80
2022/09/23 08:30:58;;;;;;;10.20;6.40;;;;;;;11.67;96.35;99152.50;220461;1284;22596;-78
2022/09/23 08:37:01;;;;;;;9.80;7.40;;;;;;;11.91;95.23;99151.20;220861;1282;22640;-80
2022/09/23 08:43:25;;;;;;;;;;;;;;;;;;;;;
2022/09/23 08:49:58;;;;;;;7.00;5.60;;;;;;;12.92;94.64;99150.52;220696;1284;23132;-79
2022/09/23 08:56:00;;;;;;;7.10;5.10;;;;;;;13.31;93.71;99146.90;220266;1284;22751;-76
2022/09/23 09:02:16;;;;;;;8.10;5.40;;;;;;;13.51;92.35;99145.85;219487;1284;23320;-76
2022/09/23 09:08:38;;;;;;;;;;;;;;;;;;;;;
2022/09/23 09:15:34;;;;;;;6.70;4.90;;;;;;;14.10;91.34;99139.98;219438;1283;23249;-75
2022/09/23 09:21:46;;;;;;;;;;;;;;;;;;;;;
2022/09/23 09:27:14;;;;;;;9.40;7.30;;;;;;;14.33;89.93;99137.55;219426;1284;24452;-73
2022/09/23 09:32:47;;;;;;;6.80;4.40;;;;;;;14.60;88.97;99131.48;219285;1284;23178;-75
2022/09/23 09:38:39;;;;;;;7.20;4.50;;;;;;;14.46;86.85;99123.98;218950;1284;22711;-75
2022/09/23 09:45:23;;;;;;;7.10;5.20;;;;;;;14.36;87.05;99119.47;217573;1290;24411;-75
2022/09/23 09:51:41;;;;;;;5.20;4.00;;;;;;;14.14;86.11;99104.23;216451;1296;22564;-75
2022/09/23 09:56:55;;;;;;;5.40;4.20;;;;;;;14.42;86.21;99093.34;216282;1296;25572;-81
2022/09/23 10:02:39;;;;;;;5.00;4.20;;;;;;;14.88;85.82;99095.23;219441;1287;24277;-80
2022/09/23 10:08:51;;;;;;;7.90;4.60;;;;;;;15.35;84.08;99089.29;219947;1287;26337;-78
2022/09/23 10:15:36;;;;;;;3.80;3.00;;;;;;;16.04;83.88;99084.09;218520;1290;24015;-79
2022/09/23 10:21:52;;;;;;;3.70;2.50;;;;;;;16.31;82.76;99086.84;220253;1284;24313;-78
2022/09/23 10:27:38;;;;;;;2.30;2.10;;;;;;;16.06;81.13;99085.60;219979;1285;24312;-75
2022/09/23 10:46:44;;;;;;;6.50;3.80;;;;;;;14.88;79.70;99084.23;220787;1284;22530;-76
2022/09/23 10:52:34;;;;;;;4.10;2.90;;;;;;;14.75;79.26;99078.95;219179;1284;24208;-75
2022/09/23 10:59:07;;;;;;;3.20;2.60;;;;;;;14.71;79.65;99068.69;220599;1283;22607;-75
2022/09/23 11:11:53;;;;;;;2.90;2.30;;;;;;;15.28;78.57;99056.64;219075;1283;24273;-75
2022/09/23 11:18:26;;;;;;;;;;;;;;;;;;;;;
2022/09/23 11:23:48;;;;;;;1.90;1.50;;;;;;;15.76;76.67;99052.98;220430;1276;23104;-75
2022/09/23 11:29:29;;;;;;;1.30;1.20;;;;;;;16.05;74.05;99049.16;221969;1276;22573;-74
2022/09/23 11:36:04;;;;;;;1.90;1.40;;;;;;;16.24;73.21;99046.30;221924;1276;23404;-75
2022/09/23 11:41:24;;;;;;;7.20;1.50;;;;;;;16.33;73.07;99041.96;221658;1278;24706;-74
2022/09/23 11:46:59;;;;;;;;;;;;;;;;;;;;;
2022/09/23 11:53:05;;;;;;;2.10;1.80;;;;;;;15.88;71.72;99037.08;220475;1276;24288;-74
2022/09/23 11:58:58;;;;;;;2.90;2.10;;;;;;;15.56;71.63;99034.21;220582;1276;24426;-75
2022/09/23 12:04:52;;;;;;;;;;;;;;;15.31;71.56;99025.64;220470;1276;22803;-74
2022/09/23 12:11:01;;;;;;;2.00;1.10;;;;;;;15.19;70.05;99018.34;220464;1276;22657;-73
2022/09/23 12:17:09;;;;;;;1.40;1.10;;;;;;;15.43;69.63;99012.94;220669;1276;22626;-74
2022/09/23 12:23:42;;;;;;;1.50;1.00;;;;;;;15.96;68.66;99008.06;219968;1281;22606;-75
2022/09/23 12:29:53;;;;;;;;;;;;;;;;;;;;;
2022/09/23 12:35:52;;;;;;;2.80;1.00;;;;;;;16.27;67.27;98994.14;219299;1284;22942;-74
2022/09/23 12:42:15;;;;;;;;;;;;;;;;;;;;;
2022/09/23 12:47:47;;;;;;;3.70;1.40;;;;;;;16.07;64.68;98978.52;219146;1282;24333;-75
2022/09/23 12:53:52;;;;;;;1.50;0.90;;;;;;;16.04;64.84;98974.67;219409;1284;22846;-75
2022/09/23 13:00:32;;;;;;;;;;;;;;;;;;;;;
2022/09/23 13:07:44;;;;;;;2.00;1.00;;;;;;;15.91;62.94;98961.70;220506;1276;23810;-78
2022/09/23 13:14:36;;;;;;;;;;;;;;;;;;;;;
2022/09/23 13:27:01;;;;;;;1.50;1.00;;;;;;;16.22;64.96;98943.20;221834;1278;23839;-80
2022/09/23 13:33:03;;;;;;;3.10;1.60;;;;;;;16.25;64.08;98935.89;222111;1276;22708;-78
2022/09/23 13:38:36;;;;;;;2.10;1.40;;;;;;;16.11;64.61;98928.30;222015;1276;24261;-77
2022/09/23 13:44:01;;;;;;;2.30;1.30;;;;;;;16.01;63.84;98928.69;222184;1276;22572;-76
2022/09/23 13:49:13;;;;;;;1.40;1.30;;;;;;;15.89;64.10;98926.58;221512;1278;150447;-78
2022/09/23 13:54:48;;;;;;;2.30;1.40;;;;;;;15.72;64.08;98919.04;222173;1276;22566;-77
2022/09/23 14:00:23;;;;;;;2.40;1.70;;;;;;;15.56;63.60;98913.61;221954;1274;22538;-75
2022/09/23 14:05:38;;;;;;;3.10;1.50;;;;;;;15.53;64.17;98910.65;219934;1278;22567;-75
2022/09/23 14:11:05;;;;;;;3.60;1.50;;;;;;;15.44;63.95;98902.14;219927;1278;22595;-76
2022/09/23 14:17:00;;;;;;;2.60;1.80;;;;;;;15.32;64.91;98902.45;220927;1279;24436;-76
2022/09/23 14:22:57;;;;;;;1.80;1.40;;;;;;;15.17;65.11;98899.83;220968;1279;22911;-76
2022/09/23 14:28:45;;;;;;;1.60;1.30;;;;;;;15.04;65.76;98901.11;219899;1282;25374;-76
2022/09/23 14:35:37;;;;;;;;;;;;;;;;;;;;;
2022/09/23 14:41:55;;;;;;;2.80;1.30;;;;;;;14.91;65.86;98894.42;219644;1284;25358;-76
2022/09/23 14:48:02;;;;;;;2.90;1.60;;;;;;;14.85;65.56;98892.16;219558;1284;22620;-75
2022/09/23 15:01:01;;;;;;;3.50;1.70;;;;;;;14.74;66.07;98881.23;220503;1281;22550;-76
2022/09/23 15:07:25;;;;;;;;;;;;;;;;;;;;;
2022/09/23 15:13:55;;;;;;;;;;;;;;;;;;;;;
2022/09/23 15:20:07;;;;;;;2.70;1.60;;;;;;;14.52;66.46;98869.38;219965;1282;22681;-77
2022/09/23 15:26:56;;;;;;;;;;;;;;;;;;;;;
2022/09/23 15:32:52;;;;;;;;;;;;;;;14.22;65.96;98865.88;219247;1284;24246;-76
2022/09/23 15:38:38;;;;;;;3.20;1.60;;;;;;;14.12;66.80;98862.23;219098;1284;22729;-76
2022/09/23 15:44:50;;;;;;;1.50;1.10;;;;;;;13.99;66.78;98854.23;220147;1281;26556;-76
2022/09/23 15:50:48;;;;;;;2.60;1.40;;;;;;;13.86;66.63;98850.57;219529;1281;22555;-77
2022/09/23 15:56:33;;;;;;;4.80;2.10;;;;;;;13.74;66.35;98854.23;219702;1281;22555;-77
2022/09/23 16:02:32;;;;;;;5.70;2.30;;;;;;;13.60;66.62;98851.06;220097;1281;23212;-77
2022/09/23 16:09:04;;;;;;;3.80;1.10;;;;;;;13.42;66.99;98848.10;218747;1281;23808;-76
2022/09/23 16:14:34;;;;;;;1.80;1.50;;;;;;;13.20;67.76;98844.26;219549;1282;24324;-76
2022/09/23 16:20:13;;;;;;;1.20;1.00;;;;;;;12.99;68.59;98840.20;219318;1281;22639;-76
2022/09/23 16:26:06;;;;;;;;;;;;;;;;;;;;;
2022/09/23 16:32:35;;;;;;;3.20;1.50;;;;;;;12.39;70.64;98838.36;220357;1281;22652;-75
2022/09/23 16:38:00;;;;;;;3.40;1.70;;;;;;;12.12;71.41;98836.00;219504;1281;22600;-76
2022/09/23 16:44:36;;;;;;;7.10;2.60;;;;;;;11.81;71.92;98834.22;219707;1281;22654;-75
2022/09/23 16:51:09;;;;;;;6.30;2.80;;;;;;;11.51;72.76;98833.59;219729;1281;26385;-75
2022/09/23 16:57:46;;;;;;;7.10;3.20;;;;;;;11.23;73.54;98833.46;219761;1277;22742;-75
2022/09/23 17:04:10;;;;;;;6.30;3.70;;;;;;;10.95;73.82;98827.91;219697;1284;25263;-75
2022/09/23 17:10:27;;;;;;;8.10;4.20;;;;;;;10.68;74.28;98827.14;219519;1284;23797;-76
2022/09/23 17:16:35;;;;;;;7.90;4.10;;;;;;;10.42;75.02;98825.38;219079;1284;24359;-76
2022/09/23 17:22:11;;;;;;;9.80;4.70;;;;;;;10.22;75.51;98832.10;218631;1284;25549;-76
2022/09/23 17:27:23;;;;;;;8.40;5.30;;;;;;;10.04;76.24;98832.55;218547;1284;24505;-76
2022/09/23 17:32:26;;;;;;;10.40;6.00;;;;;;;9.86;76.70;98835.55;219307;1279;24031;-75
2022/09/23 17:37:31;;;;;;;19.00;10.50;;;;;;;9.70;77.26;98837.24;219736;1277;24216;-75
2022/09/23 17:43:24;;;;;;;11.00;6.70;;;;;;;9.52;77.78;98834.98;220642;1281;22694;-75
2022/09/23 17:49:16;;;;;;;12.70;7.00;;;;;;;9.35;78.30;98841.63;219996;1277;22567;-76
2022/09/23 17:54:44;;;;;;;9.00;5.10;;;;;;;9.20;78.93;98843.71;219958;1279;22552;-75
2022/09/23 18:00:29;;;;;;;11.80;6.70;;;;;;;9.07;80.20;98847.05;220893;1277;22556;-76
2022/09/23 18:05:52;;;;;;;7.40;5.20;;;;;;;8.92;81.33;98850.61;220108;1278;25467;-75
2022/09/23 18:11:23;;;;;;;11.00;6.00;;;;;;;8.78;81.58;98848.11;219934;1281;25278;-76
2022/09/23 18:16:58;;;;;;;15.50;7.70;;;;;;;8.64;81.97;98844.85;220123;1277;24312;-76
2022/09/23 18:22:10;;;;;;;22.90;12.10;;;;;;;8.56;82.58;98848.09;220876;1279;25417;-75
2022/09/23 18:27:41;;;;;;;30.30;15.40;;;;;;;8.46;83.02;98848.65;219847;1279;24173;-74
2022/09/23 18:33:20;;;;;;;37.70;18.80;;;;;;;8.36;83.30;98846.64;219641;1279;22561;-76
2022/09/23 18:38:47;;;;;;;;;;;;;;;;;;;;;
2022/09/23 18:43:53;;;;;;;70.10;32.50;;;;;;;8.20;84.16;98837.72;220155;1277;23141;-75
2022/09/23 18:55:43;;;;;;;;;;;;;;;;;;;;;
2022/09/23 19:02:08;;;;;;;;;;;;;;;;;;;;;
2022/09/23 19:08:06;;;;;;;;;;;;;;;;;;;;;
2022/09/23 19:13:33;;;;;;;49.60;22.50;;;;;;;7.93;86.24;98840.48;220967;1277;22569;-76
2022/09/23 19:18:46;;;;;;;40.30;20.50;;;;;;;7.97;86.78;98841.17;220831;1278;22707;-75
2022/09/23 19:24:02;;;;;;;40.50;20.90;;;;;;;8.00;86.99;98839.41;219997;1277;25213;-75
2022/09/23 19:29:37;;;;;;;34.30;19.90;;;;;;;8.03;87.18;98831.23;219542;1279;22569;-75
2022/09/23 19:36:27;;;;;;;47.10;24.60;;;;;;;8.03;87.28;98822.01;219792;1277;22644;-76
2022/09/23 19:41:51;;;;;;;47.60;27.90;;;;;;;8.02;87.67;98824.41;220003;1281;22586;-75
2022/09/23 19:46:55;;;;;;;59.20;31.20;;;;;;;8.00;88.01;98827.41;219722;1277;22841;-75
2022/09/23 19:52:18;;;;;;;63.20;33.10;;;;;;;7.99;87.97;98827.94;219883;1277;25237;-75
2022/09/23 19:57:22;;;;;;;62.30;34.30;;;;;;;7.99;88.26;98822.66;220107;1284;24242;-76
2022/09/23 20:02:35;;;;;;;89.00;47.60;;;;;;;7.99;88.53;98815.25;219222;1284;22661;-76
2022/09/23 20:08:01;;;;;;;;;;;;;;;;;;;;;
2022/09/23 20:13:06;;;;;;;59.20;34.10;;;;;;;7.96;88.78;98807.02;219124;1284;24317;-77
2022/09/23 20:18:37;;;;;;;56.60;31.70;;;;;;;7.93;88.90;98806.13;219776;1284;23812;-75
2022/09/23 20:23:57;;;;;;;61.30;31.90;;;;;;;7.86;89.20;98800.75;219554;1284;22560;-76
2022/09/23 20:29:37;;;;;;;60.00;35.20;;;;;;;7.73;89.52;98793.84;219510;1281;25329;-75
2022/09/23 20:34:56;;;;;;;66.80;36.70;;;;;;;7.68;89.71;98802.91;219831;1284;22638;-75
2022/09/23 20:40:29;;;;;;;64.90;36.40;;;;;;;7.60;89.73;98801.73;219061;1282;24811;-75
2022/09/23 20:46:01;;;;;;;103.30;45.50;;;;;;;7.50;90.03;98796.58;219668;1282;26457;-77
2022/09/23 20:51:43;;;;;;;86.30;40.80;;;;;;;7.44;90.25;98798.45;220256;1282;22547;-75
2022/09/23 20:56:48;;;;;;;70.50;37.90;;;;;;;7.40;90.22;98791.14;219472;1278;25263;-75
2022/09/23 21:02:32;;;;;;;66.70;34.20;;;;;;;7.38;90.36;98791.36;219791;1279;24240;-75
2022/09/23 21:08:25;;;;;;;55.30;30.00;;;;;;;7.36;90.47;98792.32;221110;1277;22575;-75
2022/09/23 21:13:28;;;;;;;47.60;28.30;;;;;;;7.36;90.71;98796.15;219927;1279;22556;-75
2022/09/23 21:19:21;;;;;;;54.40;30.30;;;;;;;7.38;90.78;98793.86;220050;1277;25429;-75
2022/09/23 21:25:59;;;;;;;;;;;;;;;;;;;;;
2022/09/23 21:32:07;;;;;;;;;;;;;;;;;;;;;
2022/09/23 21:45:19;;;;;;;44.40;23.60;;;;;;;7.38;91.19;98801.21;220951;1277;22810;-74
2022/09/23 21:58:57;;;;;;;47.40;26.50;;;;;;;7.53;91.72;98806.81;219556;1284;22630;-77
2022/09/23 22:05:28;;;;;;;42.10;24.20;;;;;;;7.63;91.36;98799.98;219767;1284;22680;-75
2022/09/23 22:19:15;;;;;;;;;;;;;;;;;;;;;
2022/09/23 22:26:09;;;;;;;;;;;;;;;;;;;;;
2022/09/23 22:33:03;;;;;;;46.00;23.90;;;;;;;7.78;91.22;98792.98;218977;1283;25324;-75
2022/09/23 22:39:38;;;;;;;47.70;26.40;;;;;;;7.72;91.01;98796.52;219170;1281;22586;-76
2022/09/23 22:45:52;;;;;;;46.80;26.10;;;;;;;7.66;91.20;98796.73;219932;1277;25378;-75
2022/09/23 22:52:37;;;;;;;50.20;27.80;;;;;;;7.65;91.23;98792.46;220868;1277;25372;-75
2022/09/23 23:05:29;;;;;;;44.50;25.20;;;;;;;7.66;91.31;98784.25;221199;1277;22943;-75
2022/09/23 23:11:57;;;;;;;45.20;24.30;;;;;;;7.65;91.50;98785.42;220120;1284;22572;-76
2022/09/23 23:25:36;;;;;;;53.20;27.40;;;;;;;7.62;91.45;98778.06;219949;1284;22602;-75
2022/09/23 23:32:22;;;;;;;50.60;27.10;;;;;;;7.58;91.41;98774.55;218967;1282;22728;-75
2022/09/23 23:39:06;;;;;;;;;;;;;;;;;;;;;
2022/09/23 23:45:21;;;;;;;44.80;24.10;;;;;;;7.43;91.58;98769.07;219710;1279;25386;-75
2022/09/23 23:52:27;;;;;;;42.70;23.00;;;;;;;7.38;91.49;98765.61;219332;1281;22571;-74
2022/09/23 23:59:11;;;;;;;;;;;;;;;;;;;;;
